sensor_id;sensor_type;location;lat;lon;timestamp;pressure;altitude;pressure_sealevel;temperature;humidity
74427;BME280;62859;53.906;27.430;2023-05-10T00:01:53;1019;;;13.1;28.8
74427;BME280;62859;53.906;27.430;2023-05-10T00:06:29;1018.9;;;13.1;28.7
74427;BME280;62859;53.906;27.430;2023-05-10T00:12:03;1018.9;;;13.1;28.7
74427;BME280;62859;53.906;27.430;2023-05-10T00:16:39;1019;;;13.1;28.8
74427;BME280;62859;53.906;27.430;2023-05-10T00:21:19;1019;;;13;28.9
74427;BME280;62859;53.906;27.430;2023-05-10T00:26:49;1019;;;13;28.8
74427;BME280;62859;53.906;27.430;2023-05-10T00:31:59;1018.9;;;13;28.9
74427;BME280;62859;53.906;27.430;2023-05-10T00:36:41;1018.9;;;13.1;28.8
74427;BME280;62859;53.906;27.430;2023-05-10T00:41:49;1018.9;;;13.1;28.8
74427;BME280;62859;53.906;27.430;2023-05-10T00:46:47;1018.9;;;13;28.6
74427;BME280;62859;53.906;27.430;2023-05-10T00:51:39;1018.9;;;13;28.8
74427;BME280;62859;53.906;27.430;2023-05-10T00:56:27;1018.9;;;12.9;28.9
74427;BME280;62859;53.906;27.430;2023-05-10T01:01:39;1018.9;;;13;28.9
74427;BME280;62859;53.906;27.430;2023-05-10T01:07:01;1018.9;;;13;28.8
74427;BME280;62859;53.906;27.430;2023-05-10T01:12:01;1018.9;;;13;28.9
74427;BME280;62859;53.906;27.430;2023-05-10T01:16:29;1018.9;;;12.9;29
74427;BME280;62859;53.906;27.430;2023-05-10T01:22:02;1018.8;;;12.8;29.1
74427;BME280;62859;53.906;27.430;2023-05-10T01:26:45;1018.8;;;12.8;29.3
74427;BME280;62859;53.906;27.430;2023-05-10T01:31:47;1018.8;;;12.7;29.5
74427;BME280;62859;53.906;27.430;2023-05-10T01:36:42;1018.8;;;12.6;29.7
74427;BME280;62859;53.906;27.430;2023-05-10T01:42:02;1018.8;;;12.6;29.7
74427;BME280;62859;53.906;27.430;2023-05-10T01:46:31;1018.8;;;12.6;29.6
74427;BME280;62859;53.906;27.430;2023-05-10T01:51:36;1018.7;;;12.6;29.9
74427;BME280;62859;53.906;27.430;2023-05-10T01:57:02;1018.8;;;12.5;30.2
74427;BME280;62859;53.906;27.430;2023-05-10T02:01:29;1018.7;;;12.5;30.3
74427;BME280;62859;53.906;27.430;2023-05-10T02:06:35;1018.7;;;12.4;30.6
74427;BME280;62859;53.906;27.430;2023-05-10T02:11:39;1018.7;;;12.3;31
74427;BME280;62859;53.906;27.430;2023-05-10T02:16:59;1018.7;;;12.2;31.4
74427;BME280;62859;53.906;27.430;2023-05-10T02:21:45;1018.7;;;12.2;31.5
74427;BME280;62859;53.906;27.430;2023-05-10T02:26:37;1018.7;;;12.2;31.6
74427;BME280;62859;53.906;27.430;2023-05-10T02:31:41;1018.7;;;12.2;31.7
74427;BME280;62859;53.906;27.430;2023-05-10T02:36:39;1018.7;;;12.1;31.9
74427;BME280;62859;53.906;27.430;2023-05-10T02:41:27;1018.8;;;12.2;31.7
74427;BME280;62859;53.906;27.430;2023-05-10T02:46:41;1018.8;;;12.1;31.9
74427;BME280;62859;53.906;27.430;2023-05-10T02:51:19;1018.8;;;12.1;31.8
74427;BME280;62859;53.906;27.430;2023-05-10T02:56:28;1018.8;;;12.1;31.7
74427;BME280;62859;53.906;27.430;2023-05-10T03:02:01;1018.7;;;12.2;31.3
74427;BME280;62859;53.906;27.430;2023-05-10T03:06:51;1018.7;;;12.2;31.3
74427;BME280;62859;53.906;27.430;2023-05-10T03:11:47;1018.7;;;12.3;31.3
74427;BME280;62859;53.906;27.430;2023-05-10T03:17:04;1018.8;;;12.3;31
74427;BME280;62859;53.906;27.430;2023-05-10T03:21:29;1018.8;;;12.4;30.8
74427;BME280;62859;53.906;27.430;2023-05-10T03:26:31;1018.8;;;12.4;31
74427;BME280;62859;53.906;27.430;2023-05-10T03:31:49;1018.8;;;12.4;30.8
74427;BME280;62859;53.906;27.430;2023-05-10T03:37:01;1018.8;;;12.4;30.5
74427;BME280;62859;53.906;27.430;2023-05-10T03:41:19;1018.8;;;12.4;30.6
74427;BME280;62859;53.906;27.430;2023-05-10T03:47:01;1018.8;;;12.5;30.5
74427;BME280;62859;53.906;27.430;2023-05-10T03:52:01;1018.8;;;12.6;30.2
74427;BME280;62859;53.906;27.430;2023-05-10T03:56:53;1018.8;;;12.6;30.2
74427;BME280;62859;53.906;27.430;2023-05-10T04:01:35;1018.8;;;12.7;29.7
74427;BME280;62859;53.906;27.430;2023-05-10T04:06:53;1018.8;;;12.8;29.7
74427;BME280;62859;53.906;27.430;2023-05-10T04:11:49;1018.8;;;12.9;29.8
74427;BME280;62859;53.906;27.430;2023-05-10T04:17:01;1018.8;;;13;29.7
74427;BME280;62859;53.906;27.430;2023-05-10T04:21:41;1018.8;;;13;29.6
74427;BME280;62859;53.906;27.430;2023-05-10T04:27:01;1018.8;;;13.1;29.6
74427;BME280;62859;53.906;27.430;2023-05-10T04:31:27;1018.9;;;13.2;29.6
74427;BME280;62859;53.906;27.430;2023-05-10T04:36:27;1018.9;;;13.3;29.5
74427;BME280;62859;53.906;27.430;2023-05-10T04:41:31;1018.9;;;13.3;29.3
74427;BME280;62859;53.906;27.430;2023-05-10T04:46:59;1018.9;;;13.3;29.2
74427;BME280;62859;53.906;27.430;2023-05-10T04:51:37;1018.9;;;13.4;29.3
74427;BME280;62859;53.906;27.430;2023-05-10T04:56:25;1018.9;;;13.4;29.3
74427;BME280;62859;53.906;27.430;2023-05-10T05:01:59;1018.9;;;13.5;29.4
74427;BME280;62859;53.906;27.430;2023-05-10T05:06:33;1018.9;;;13.6;29.2
74427;BME280;62859;53.906;27.430;2023-05-10T05:11:33;1018.9;;;13.7;28.8
74427;BME280;62859;53.906;27.430;2023-05-10T05:16:37;1018.9;;;13.8;28.9
74427;BME280;62859;53.906;27.430;2023-05-10T05:21:59;1018.9;;;13.9;29
74427;BME280;62859;53.906;27.430;2023-05-10T05:26:37;1018.9;;;14;29.3
74427;BME280;62859;53.906;27.430;2023-05-10T05:31:35;1018.9;;;14;29.4
74427;BME280;62859;53.906;27.430;2023-05-10T05:36:41;1018.9;;;14.1;29
74427;BME280;62859;53.906;27.430;2023-05-10T05:41:49;1018.9;;;14.2;28.7
74427;BME280;62859;53.906;27.430;2023-05-10T05:46:19;1018.9;;;14.1;29.1
74427;BME280;62859;53.906;27.430;2023-05-10T05:51:39;1019;;;14.1;29.2
74427;BME280;62859;53.906;27.430;2023-05-10T05:56:35;1019;;;14.1;29.6
74427;BME280;62859;53.906;27.430;2023-05-10T06:01:19;1019.1;;;14.1;30.3
74427;BME280;62859;53.906;27.430;2023-05-10T06:06:59;1019;;;14.1;30.6
74427;BME280;62859;53.906;27.430;2023-05-10T06:11:49;1019;;;14.1;30.7
74427;BME280;62859;53.906;27.430;2023-05-10T06:16:19;1019;;;14.1;31
74427;BME280;62859;53.906;27.430;2023-05-10T06:21:57;1019;;;14.2;31.4
74427;BME280;62859;53.906;27.430;2023-05-10T06:26:35;1019;;;14.2;30.8
74427;BME280;62859;53.906;27.430;2023-05-10T06:31:19;1019.1;;;14.2;30.6
74427;BME280;62859;53.906;27.430;2023-05-10T06:36:45;1019.1;;;14.2;30.7
74427;BME280;62859;53.906;27.430;2023-05-10T06:41:57;1019.1;;;14.3;30
74427;BME280;62859;53.906;27.430;2023-05-10T06:46:27;1019.1;;;14.3;29.5
74427;BME280;62859;53.906;27.430;2023-05-10T06:51:57;1019.1;;;14.4;29.5
74427;BME280;62859;53.906;27.430;2023-05-10T06:56:55;1019;;;14.5;29
74427;BME280;62859;53.906;27.430;2023-05-10T07:01:27;1019.1;;;14.6;28.8
74427;BME280;62859;53.906;27.430;2023-05-10T07:06:42;1019;;;14.8;28.1
74427;BME280;62859;53.906;27.430;2023-05-10T07:11:33;1019.1;;;14.9;28
74427;BME280;62859;53.906;27.430;2023-05-10T07:16:47;1019.1;;;15.1;27.3
74427;BME280;62859;53.906;27.430;2023-05-10T07:21:45;1019.1;;;15;27.1
74427;BME280;62859;53.906;27.430;2023-05-10T07:26:27;1019.1;;;15.2;28.5
74427;BME280;62859;53.906;27.430;2023-05-10T07:31:57;1019.1;;;15.5;27.3
74427;BME280;62859;53.906;27.430;2023-05-10T07:36:47;1019;;;15.7;26.6
74427;BME280;62859;53.906;27.430;2023-05-10T07:41:19;1019;;;15.7;26
74427;BME280;62859;53.906;27.430;2023-05-10T07:46:39;1019;;;15.8;25.6
74427;BME280;62859;53.906;27.430;2023-05-10T07:51:43;1019;;;16;24.8
74427;BME280;62859;53.906;27.430;2023-05-10T07:56:20;1018.9;;;16.2;24.4
74427;BME280;62859;53.906;27.430;2023-05-10T08:01:42;1018.9;;;16.5;24.6
74427;BME280;62859;53.906;27.430;2023-05-10T08:06:49;1018.9;;;17;24.7
74427;BME280;62859;53.906;27.430;2023-05-10T08:11:19;1018.9;;;17.4;22.6
74427;BME280;62859;53.906;27.430;2023-05-10T08:16:27;1018.9;;;17.8;22.2
74427;BME280;62859;53.906;27.430;2023-05-10T08:21:27;1018.9;;;18.3;22.3
74427;BME280;62859;53.906;27.430;2023-05-10T08:26:57;1018.9;;;18.9;21.1
74427;BME280;62859;53.906;27.430;2023-05-10T08:31:45;1018.8;;;19.5;20.2
74427;BME280;62859;53.906;27.430;2023-05-10T08:36:19;1018.8;;;20.1;19.8
74427;BME280;62859;53.906;27.430;2023-05-10T08:41:39;1018.9;;;20.5;18.9
74427;BME280;62859;53.906;27.430;2023-05-10T08:46:49;1018.8;;;20.7;18.7
74427;BME280;62859;53.906;27.430;2023-05-10T08:51:21;1018.8;;;20.6;18.8
74427;BME280;62859;53.906;27.430;2023-05-10T08:56:31;1018.8;;;20.6;18.7
74427;BME280;62859;53.906;27.430;2023-05-10T09:01:19;1018.7;;;20.9;18.7
74427;BME280;62859;53.906;27.430;2023-05-10T09:06:19;1018.7;;;21.5;18
74427;BME280;62859;53.906;27.430;2023-05-10T09:11:57;1018.6;;;21.9;17.6
74427;BME280;62859;53.906;27.430;2023-05-10T09:16:49;1018.6;;;21.9;17.4
74427;BME280;62859;53.906;27.430;2023-05-10T09:21:19;1018.7;;;21.9;17.3
74427;BME280;62859;53.906;27.430;2023-05-10T09:26:57;1018.7;;;21.9;17.2
74427;BME280;62859;53.906;27.430;2023-05-10T09:31:42;1018.5;;;22.3;16.8
74427;BME280;62859;53.906;27.430;2023-05-10T09:36:19;1018.5;;;22.7;16.5
74427;BME280;62859;53.906;27.430;2023-05-10T09:41:43;1018.5;;;23;16.4
74427;BME280;62859;53.906;27.430;2023-05-10T09:46:57;1018.4;;;23.3;15.9
74427;BME280;62859;53.906;27.430;2023-05-10T09:51:27;1018.5;;;23.6;16.1
74427;BME280;62859;53.906;27.430;2023-05-10T09:56:57;1018.4;;;23.7;15.9
74427;BME280;62859;53.906;27.430;2023-05-10T10:01:52;1018.4;;;23.5;15.8
74427;BME280;62859;53.906;27.430;2023-05-10T10:06:58;1018.3;;;23.6;15.5
74427;BME280;62859;53.906;27.430;2023-05-10T10:11:34;1018.3;;;23.7;15.4
74427;BME280;62859;53.906;27.430;2023-05-10T10:16:55;1018.2;;;23.7;15.2
74427;BME280;62859;53.906;27.430;2023-05-10T10:21:47;1018.2;;;24;15.2
74427;BME280;62859;53.906;27.430;2023-05-10T10:26:35;1018.1;;;24;15
74427;BME280;62859;53.906;27.430;2023-05-10T10:31:26;1018.1;;;23.8;15.1
74427;BME280;62859;53.906;27.430;2023-05-10T10:36:57;1018.1;;;23.7;15.4
74427;BME280;62859;53.906;27.430;2023-05-10T10:41:27;1018;;;23.6;15.5
74427;BME280;62859;53.906;27.430;2023-05-10T10:46:27;1018.1;;;23.8;15
74427;BME280;62859;53.906;27.430;2023-05-10T10:51:39;1018.1;;;23.8;14.5
74427;BME280;62859;53.906;27.430;2023-05-10T10:56:41;1018;;;24;14.7
74427;BME280;62859;53.906;27.430;2023-05-10T11:01:19;1017.9;;;24.4;14.6
74427;BME280;62859;53.906;27.430;2023-05-10T11:06:49;1017.8;;;24.5;14.2
74427;BME280;62859;53.906;27.430;2023-05-10T11:11:51;1017.8;;;24.7;14.6
74427;BME280;62859;53.906;27.430;2023-05-10T11:16:27;1017.9;;;24.7;13.9
74427;BME280;62859;53.906;27.430;2023-05-10T11:22:13;1017.8;;;24.8;13.9
74427;BME280;62859;53.906;27.430;2023-05-10T11:26:19;1017.7;;;24.7;14.1
74427;BME280;62859;53.906;27.430;2023-05-10T11:31:38;1017.7;;;24.8;14
74427;BME280;62859;53.906;27.430;2023-05-10T11:36:43;1017.7;;;24.9;13.9
74427;BME280;62859;53.906;27.430;2023-05-10T11:41:57;1017.7;;;25.1;13.6
74427;BME280;62859;53.906;27.430;2023-05-10T11:46:31;1017.7;;;25.3;13.4
74427;BME280;62859;53.906;27.430;2023-05-10T11:51:47;1017.6;;;25.6;13.3
74427;BME280;62859;53.906;27.430;2023-05-10T11:56:43;1017.5;;;25.9;12.9
74427;BME280;62859;53.906;27.430;2023-05-10T12:01:49;1017.5;;;25.9;12.6
74427;BME280;62859;53.906;27.430;2023-05-10T12:06:37;1017.5;;;26;12.9
74427;BME280;62859;53.906;27.430;2023-05-10T12:11:20;1017.5;;;26.1;12.9
74427;BME280;62859;53.906;27.430;2023-05-10T12:16:59;1017.4;;;26.1;12.6
74427;BME280;62859;53.906;27.430;2023-05-10T12:21:49;1017.4;;;26.1;12.7
74427;BME280;62859;53.906;27.430;2023-05-10T12:26:21;1017.4;;;26.2;12.7
74427;BME280;62859;53.906;27.430;2023-05-10T12:31:59;1017.3;;;26.3;12.5
74427;BME280;62859;53.906;27.430;2023-05-10T12:36:27;1017.3;;;26.4;12.3
74427;BME280;62859;53.906;27.430;2023-05-10T12:41:19;1017.3;;;26.6;12.6
74427;BME280;62859;53.906;27.430;2023-05-10T12:46:47;1017.3;;;26.2;12.6
74427;BME280;62859;53.906;27.430;2023-05-10T12:51:57;1017.2;;;26;13
74427;BME280;62859;53.906;27.430;2023-05-10T12:56:27;1017.2;;;26.1;12.9
74427;BME280;62859;53.906;27.430;2023-05-10T13:01:57;1017.2;;;26.1;12.8
74427;BME280;62859;53.906;27.430;2023-05-10T13:07:01;1017.1;;;25.9;12.7
74427;BME280;62859;53.906;27.430;2023-05-10T13:11:53;1017.1;;;25.8;12.8
74427;BME280;62859;53.906;27.430;2023-05-10T13:16:37;1017.1;;;25.8;12.8
74427;BME280;62859;53.906;27.430;2023-05-10T13:21:51;1017.1;;;25.9;12.6
74427;BME280;62859;53.906;27.430;2023-05-10T13:26:49;1017.1;;;25.9;12.8
74427;BME280;62859;53.906;27.430;2023-05-10T13:31:47;1017.1;;;25.8;13.2
74427;BME280;62859;53.906;27.430;2023-05-10T13:36:29;1017.1;;;25.9;12.9
74427;BME280;62859;53.906;27.430;2023-05-10T13:41:59;1017;;;25.8;13.2
74427;BME280;62859;53.906;27.430;2023-05-10T13:46:47;1017;;;25.8;13.1
74427;BME280;62859;53.906;27.430;2023-05-10T13:51:29;1016.9;;;25.9;13
74427;BME280;62859;53.906;27.430;2023-05-10T13:56:41;1016.9;;;25.7;13.1
74427;BME280;62859;53.906;27.430;2023-05-10T14:01:45;1016.9;;;25.4;13.4
74427;BME280;62859;53.906;27.430;2023-05-10T14:06:29;1016.9;;;25;13.7
74427;BME280;62859;53.906;27.430;2023-05-10T14:11:51;1016.8;;;24.7;14.2
74427;BME280;62859;53.906;27.430;2023-05-10T14:16:51;1016.8;;;24.5;14.1
74427;BME280;62859;53.906;27.430;2023-05-10T14:21:19;1016.8;;;24.1;14.5
74427;BME280;62859;53.906;27.430;2023-05-10T14:26:59;1016.7;;;23.8;14.7
74427;BME280;62859;53.906;27.430;2023-05-10T14:31:37;1016.7;;;23.5;14.8
74427;BME280;62859;53.906;27.430;2023-05-10T14:36:31;1016.7;;;23.3;14.8
74427;BME280;62859;53.906;27.430;2023-05-10T14:41:45;1016.6;;;23.1;15
74427;BME280;62859;53.906;27.430;2023-05-10T14:46:59;1016.7;;;22.8;15.6
74427;BME280;62859;53.906;27.430;2023-05-10T14:51:19;1016.7;;;22.7;15.7
74427;BME280;62859;53.906;27.430;2023-05-10T14:56:22;1016.7;;;22.4;15.8
74427;BME280;62859;53.906;27.430;2023-05-10T15:01:46;1016.7;;;22.3;15.8
74427;BME280;62859;53.906;27.430;2023-05-10T15:06:49;1016.6;;;21.9;16.2
74427;BME280;62859;53.906;27.430;2023-05-10T15:11:36;1016.6;;;21.7;16.4
74427;BME280;62859;53.906;27.430;2023-05-10T15:16:19;1016.6;;;21.6;16.6
74427;BME280;62859;53.906;27.430;2023-05-10T15:21:59;1016.5;;;21.5;16.9
74427;BME280;62859;53.906;27.430;2023-05-10T15:26:59;1016.6;;;21.4;16.7
74427;BME280;62859;53.906;27.430;2023-05-10T15:31:29;1016.5;;;21.1;17
74427;BME280;62859;53.906;27.430;2023-05-10T15:36:59;1016.5;;;20.9;17.5
74427;BME280;62859;53.906;27.430;2023-05-10T15:41:38;1016.5;;;20.9;17.4
74427;BME280;62859;53.906;27.430;2023-05-10T15:46:19;1016.5;;;20.6;17.7
74427;BME280;62859;53.906;27.430;2023-05-10T15:51:39;1016.5;;;20.3;17.8
74427;BME280;62859;53.906;27.430;2023-05-10T15:56:59;1016.5;;;20.1;18
74427;BME280;62859;53.906;27.430;2023-05-10T16:01:20;1016.4;;;19.9;18.1
74427;BME280;62859;53.906;27.430;2023-05-10T16:07:00;1016.4;;;19.7;18.2
74427;BME280;62859;53.906;27.430;2023-05-10T16:12:00;1016.4;;;19.5;18.2
74427;BME280;62859;53.906;27.430;2023-05-10T16:16:51;1016.4;;;19.4;18.3
74427;BME280;62859;53.906;27.430;2023-05-10T16:21:20;1016.4;;;19.4;18.4
74427;BME280;62859;53.906;27.430;2023-05-10T16:26:57;1016.4;;;19.4;18.8
74427;BME280;62859;53.906;27.430;2023-05-10T16:31:50;1016.4;;;19.3;19.1
74427;BME280;62859;53.906;27.430;2023-05-10T16:36:45;1016.5;;;19.1;19
74427;BME280;62859;53.906;27.430;2023-05-10T16:41:19;1016.5;;;18.9;19
74427;BME280;62859;53.906;27.430;2023-05-10T16:46:59;1016.5;;;18.8;19.2
74427;BME280;62859;53.906;27.430;2023-05-10T16:51:50;1016.5;;;18.8;19.5
74427;BME280;62859;53.906;27.430;2023-05-10T16:56:19;1016.5;;;18.7;19.3
74427;BME280;62859;53.906;27.430;2023-05-10T17:01:20;1016.5;;;18.6;19.6
74427;BME280;62859;53.906;27.430;2023-05-10T17:06:46;1016.5;;;18.5;19.7
74427;BME280;62859;53.906;27.430;2023-05-10T17:11:30;1016.6;;;18.4;19.8
74427;BME280;62859;53.906;27.430;2023-05-10T17:16:52;1016.6;;;18.3;19.9
74427;BME280;62859;53.906;27.430;2023-05-10T17:21:40;1016.6;;;18.2;20
74427;BME280;62859;53.906;27.430;2023-05-10T17:26:54;1016.6;;;18.1;20.3
74427;BME280;62859;53.906;27.430;2023-05-10T17:32:00;1016.7;;;17.9;20.5
74427;BME280;62859;53.906;27.430;2023-05-10T17:36:28;1016.7;;;17.9;20.7
74427;BME280;62859;53.906;27.430;2023-05-10T17:41:18;1016.7;;;17.7;20.9
74427;BME280;62859;53.906;27.430;2023-05-10T17:46:46;1016.8;;;17.6;21.1
74427;BME280;62859;53.906;27.430;2023-05-10T17:52:00;1016.8;;;17.6;21.2
74427;BME280;62859;53.906;27.430;2023-05-10T17:56:42;1016.8;;;17.6;21.1
74427;BME280;62859;53.906;27.430;2023-05-10T18:01:50;1016.8;;;17.6;21
74427;BME280;62859;53.906;27.430;2023-05-10T18:06:46;1016.9;;;17.5;21.2
74427;BME280;62859;53.906;27.430;2023-05-10T18:11:52;1016.9;;;17.5;21.2
74427;BME280;62859;53.906;27.430;2023-05-10T18:16:36;1017;;;17.4;21.4
74427;BME280;62859;53.906;27.430;2023-05-10T18:21:36;1017;;;17.3;21.5
74427;BME280;62859;53.906;27.430;2023-05-10T18:27:00;1017.1;;;17.3;21.6
74427;BME280;62859;53.906;27.430;2023-05-10T18:32:00;1017.2;;;17.2;21.8
74427;BME280;62859;53.906;27.430;2023-05-10T18:36:21;1017.2;;;17.1;21.9
74427;BME280;62859;53.906;27.430;2023-05-10T18:42:00;1017.2;;;17.1;22.1
74427;BME280;62859;53.906;27.430;2023-05-10T18:46:38;1017.2;;;17.1;22.1
74427;BME280;62859;53.906;27.430;2023-05-10T18:51:20;1017.3;;;17.1;22.3
74427;BME280;62859;53.906;27.430;2023-05-10T18:56:42;1017.3;;;17;22.4
74427;BME280;62859;53.906;27.430;2023-05-10T19:01:46;1017.3;;;16.9;22.4
74427;BME280;62859;53.906;27.430;2023-05-10T19:06:38;1017.3;;;16.9;22.2
74427;BME280;62859;53.906;27.430;2023-05-10T19:11:36;1017.4;;;16.9;22.2
74427;BME280;62859;53.906;27.430;2023-05-10T19:16:52;1017.4;;;16.8;22.4
74427;BME280;62859;53.906;27.430;2023-05-10T19:21:20;1017.4;;;16.8;22.4
74427;BME280;62859;53.906;27.430;2023-05-10T19:26:26;1017.5;;;16.7;22.6
74427;BME280;62859;53.906;27.430;2023-05-10T19:31:40;1017.5;;;16.7;22.4
74427;BME280;62859;53.906;27.430;2023-05-10T19:37:04;1017.5;;;16.7;22.4
74427;BME280;62859;53.906;27.430;2023-05-10T19:41:50;1017.5;;;16.7;22.4
74427;BME280;62859;53.906;27.430;2023-05-10T19:46:40;1017.5;;;16.7;22.2
74427;BME280;62859;53.906;27.430;2023-05-10T19:51:42;1017.5;;;16.6;22.5
74427;BME280;62859;53.906;27.430;2023-05-10T19:56:52;1017.5;;;16.5;22.5
74427;BME280;62859;53.906;27.430;2023-05-10T20:01:30;1017.6;;;16.5;22.7
74427;BME280;62859;53.906;27.430;2023-05-10T20:06:42;1017.6;;;16.5;22.6
74427;BME280;62859;53.906;27.430;2023-05-10T20:11:47;1017.6;;;16.4;22.6
74427;BME280;62859;53.906;27.430;2023-05-10T20:16:30;1017.6;;;16.2;22.6
74427;BME280;62859;53.906;27.430;2023-05-10T20:21:52;1017.7;;;16.1;22.8
74427;BME280;62859;53.906;27.430;2023-05-10T20:26:52;1017.7;;;16;22.9
74427;BME280;62859;53.906;27.430;2023-05-10T20:31:20;1017.7;;;15.9;22.9
74427;BME280;62859;53.906;27.430;2023-05-10T20:37:02;1017.7;;;15.9;23
74427;BME280;62859;53.906;27.430;2023-05-10T20:41:36;1017.7;;;15.8;23.2
74427;BME280;62859;53.906;27.430;2023-05-10T20:46:32;1017.7;;;15.7;23.3
74427;BME280;62859;53.906;27.430;2023-05-10T20:51:40;1017.7;;;15.7;23.2
74427;BME280;62859;53.906;27.430;2023-05-10T20:57:02;1017.6;;;15.6;23.2
74427;BME280;62859;53.906;27.430;2023-05-10T21:01:42;1017.6;;;15.6;23.4
74427;BME280;62859;53.906;27.430;2023-05-10T21:06:50;1017.6;;;15.5;23.3
74427;BME280;62859;53.906;27.430;2023-05-10T21:11:44;1017.6;;;15.4;23.5
74427;BME280;62859;53.906;27.430;2023-05-10T21:17:00;1017.6;;;15.3;23.6
74427;BME280;62859;53.906;27.430;2023-05-10T21:21:20;1017.6;;;15.3;23.6
74427;BME280;62859;53.906;27.430;2023-05-10T21:26:34;1017.6;;;15.3;23.5
74427;BME280;62859;53.906;27.430;2023-05-10T21:32:00;1017.6;;;15.3;23.5
74427;BME280;62859;53.906;27.430;2023-05-10T21:36:46;1017.6;;;15.3;23.8
74427;BME280;62859;53.906;27.430;2023-05-10T21:41:20;1017.6;;;15.3;24
74427;BME280;62859;53.906;27.430;2023-05-10T21:46:54;1017.6;;;15.2;24.8
74427;BME280;62859;53.906;27.430;2023-05-10T21:51:38;1017.7;;;15.1;25.9
74427;BME280;62859;53.906;27.430;2023-05-10T21:56:38;1017.7;;;15;26.4
74427;BME280;62859;53.906;27.430;2023-05-10T22:01:20;1017.7;;;15;25.5
74427;BME280;62859;53.906;27.430;2023-05-10T22:07:00;1017.7;;;15;25.2
74427;BME280;62859;53.906;27.430;2023-05-10T22:11:20;1017.7;;;15;25.1
74427;BME280;62859;53.906;27.430;2023-05-10T22:16:36;1017.8;;;15.1;25
74427;BME280;62859;53.906;27.430;2023-05-10T22:22:00;1017.8;;;15.1;25.1
74427;BME280;62859;53.906;27.430;2023-05-10T22:26:20;1017.8;;;15;25.2
74427;BME280;62859;53.906;27.430;2023-05-10T22:31:36;1017.8;;;15;25.3
74427;BME280;62859;53.906;27.430;2023-05-10T22:36:38;1017.8;;;14.9;25.1
74427;BME280;62859;53.906;27.430;2023-05-10T22:41:58;1017.8;;;14.9;24.9
74427;BME280;62859;53.906;27.430;2023-05-10T22:46:58;1017.8;;;14.8;25.1
74427;BME280;62859;53.906;27.430;2023-05-10T22:51:20;1017.8;;;14.8;24.8
74427;BME280;62859;53.906;27.430;2023-05-10T22:56:42;1017.9;;;14.9;24.8
74427;BME280;62859;53.906;27.430;2023-05-10T23:01:48;1017.9;;;14.9;25
74427;BME280;62859;53.906;27.430;2023-05-10T23:06:28;1018;;;14.8;24.8
74427;BME280;62859;53.906;27.430;2023-05-10T23:11:42;1018;;;14.8;24.9
74427;BME280;62859;53.906;27.430;2023-05-10T23:16:20;1018;;;14.8;24.8
74427;BME280;62859;53.906;27.430;2023-05-10T23:21:20;1018;;;14.8;24.8
74427;BME280;62859;53.906;27.430;2023-05-10T23:26:58;1018;;;14.7;24.9
74427;BME280;62859;53.906;27.430;2023-05-10T23:31:50;1018.1;;;14.7;24.8
74427;BME280;62859;53.906;27.430;2023-05-10T23:36:26;1018.1;;;14.7;24.8
74427;BME280;62859;53.906;27.430;2023-05-10T23:41:56;1018.1;;;14.7;25
74427;BME280;62859;53.906;27.430;2023-05-10T23:46:36;1018.1;;;14.7;25
74427;BME280;62859;53.906;27.430;2023-05-10T23:51:40;1018.2;;;14.7;24.9
74427;BME280;62859;53.906;27.430;2023-05-10T23:56:42;1018.1;;;14.7;24.7
